^^
Grace C. Lehan Memorial Weather Station Historical Data
Daily Summary for June 21, 2022 Units:  Both    English   Metric
Daily Weekly Monthly Yearly
  High: Low: Average:
Temperature: 74.2 °F /  23.4 °C 56.4 °F /  13.6 °C 66.9 °F /  19.4 °C
Dew Point: 62.4 °F /  16.9 °C 51.4 °F /  10.8 °C 56.5 °F /  13.6 °C
Humidity: 86% 57.6% 70%
Wind Speed: 0.9mph /  1.4km/h - 0mph /  0km/h
Wind Gust: 5mph /  8km/h - -
Wind- - WSW
Pressure: 30.14 in /  1020.5 hPa 30.06 in /  1017.8 hPa -
Precipitation: 0.00 in /  0 mm    
 
 
Tabular Data for June 21, 2022
Time Temperature Dew Point Pressure Wind Wind Speed Wind Gust Humidity Rainfall Rate (Hourly) solar
00:04 65.8 °F /  18.8 °C 52.4 °F /  11.3 °C 30.07in /  1018.2hPa Calm     62% 0.00in /  0mm 0 W/m2
00:09 65.7 °F /  18.7 °C 52.7 °F /  11.5 °C 30.07in /  1018.2hPa Calm   1mph /  1.6km/h 62.7% 0.00in /  0mm 0 W/m2
00:14 65.6 °F /  18.7 °C 52.7 °F /  11.5 °C 30.07in /  1018.2hPa Calm   1mph /  1.6km/h 63.1% 0.00in /  0mm 0 W/m2
00:19 65.4 °F /  18.6 °C 52.9 °F /  11.6 °C 30.07in /  1018.2hPa Calm   1mph /  1.6km/h 64% 0.00in /  0mm 0 W/m2
00:24 65.2 °F /  18.4 °C 52.6 °F /  11.4 °C 30.07in /  1018.2hPa Calm   1mph /  1.6km/h 63.7% 0.00in /  0mm 0 W/m2
00:29 65.1 °F /  18.4 °C 52.3 °F /  11.3 °C 30.07in /  1018.2hPa Calm   1mph /  1.6km/h 63.3% 0.00in /  0mm 0 W/m2
00:34 65 °F /  18.3 °C 52.3 °F /  11.3 °C 30.07in /  1018.2hPa Calm   1mph /  1.6km/h 63.5% 0.00in /  0mm 0 W/m2
00:39 64.9 °F /  18.3 °C 52.5 °F /  11.4 °C 30.07in /  1018.2hPa Calm     64% 0.00in /  0mm 0 W/m2
00:44 64.9 °F /  18.3 °C 52.4 °F /  11.3 °C 30.08in /  1018.5hPa Calm     64% 0.00in /  0mm 0 W/m2
00:49 64.7 °F /  18.2 °C 52.3 °F /  11.3 °C 30.08in /  1018.5hPa Calm     64% 0.00in /  0mm 0 W/m2
00:54 64.7 °F /  18.2 °C 52.5 °F /  11.4 °C 30.07in /  1018.2hPa Calm     64.6% 0.00in /  0mm 0 W/m2
00:59 64.6 °F /  18.1 °C 53 °F /  11.7 °C 30.07in /  1018.2hPa Calm     65.9% 0.00in /  0mm 0 W/m2
01:04 64.5 °F /  18.1 °C 52.9 °F /  11.6 °C 30.07in /  1018.2hPa Calm     66% 0.00in /  0mm 0 W/m2
01:09 64.3 °F /  17.9 °C 52.7 °F /  11.5 °C 30.07in /  1018.2hPa Calm     66% 0.00in /  0mm 0 W/m2
01:14 64.2 °F /  17.9 °C 52.6 °F /  11.4 °C 30.07in /  1018.2hPa Calm     66% 0.00in /  0mm 0 W/m2
01:19 64.1 °F /  17.8 °C 52.9 °F /  11.6 °C 30.06in /  1017.8hPa Calm     67% 0.00in /  0mm 0 W/m2
01:24 63.9 °F /  17.7 °C 52.9 °F /  11.6 °C 30.06in /  1017.8hPa Calm     67.5% 0.00in /  0mm 0 W/m2
01:29 63.7 °F /  17.6 °C 53.1 °F /  11.7 °C 30.06in /  1017.8hPa Calm     68.4% 0.00in /  0mm 0 W/m2
01:34 63.5 °F /  17.5 °C 53.2 °F /  11.8 °C 30.06in /  1017.8hPa Calm     69.3% 0.00in /  0mm 0 W/m2
01:39 63.2 °F /  17.3 °C 53 °F /  11.7 °C 30.06in /  1017.8hPa Calm     69.2% 0.00in /  0mm 0 W/m2
01:44 63 °F /  17.2 °C 52.5 °F /  11.4 °C 30.06in /  1017.8hPa Calm     68.5% 0.00in /  0mm 0 W/m2
01:49 62.9 °F /  17.2 °C 52.5 °F /  11.4 °C 30.06in /  1017.8hPa Calm     69% 0.00in /  0mm 0 W/m2
01:54 62.7 °F /  17.1 °C 52.8 °F /  11.6 °C 30.06in /  1017.8hPa Calm     70% 0.00in /  0mm 0 W/m2
01:59 62.5 °F /  16.9 °C 52.6 °F /  11.4 °C 30.06in /  1017.8hPa Calm     70% 0.00in /  0mm 0 W/m2
02:04 62.4 °F /  16.9 °C 52.4 °F /  11.3 °C 30.06in /  1017.8hPa Calm     69.8% 0.00in /  0mm 0 W/m2
02:09 62.3 °F /  16.8 °C 52.7 °F /  11.5 °C 30.07in /  1018.2hPa Calm     70.8% 0.00in /  0mm 0 W/m2
02:14 62.2 °F /  16.8 °C 52.8 °F /  11.6 °C 30.07in /  1018.2hPa Calm     71.2% 0.00in /  0mm 0 W/m2
02:19 62.1 °F /  16.7 °C 52.9 °F /  11.6 °C 30.07in /  1018.2hPa Calm     72% 0.00in /  0mm 0 W/m2
02:24 61.9 °F /  16.6 °C 52.8 °F /  11.6 °C 30.07in /  1018.2hPa Calm     72% 0.00in /  0mm 0 W/m2
02:29 61.8 °F /  16.6 °C 52.7 °F /  11.5 °C 30.07in /  1018.2hPa Calm     72% 0.00in /  0mm 0 W/m2
02:34 61.8 °F /  16.6 °C 53 °F /  11.7 °C 30.07in /  1018.2hPa Calm     73% 0.00in /  0mm 0 W/m2
02:39 61.6 °F /  16.4 °C 53.3 °F /  11.8 °C 30.07in /  1018.2hPa Calm     74.2% 0.00in /  0mm 0 W/m2
02:44 61.4 °F /  16.3 °C 53 °F /  11.7 °C 30.07in /  1018.2hPa Calm     74.1% 0.00in /  0mm 0 W/m2
02:49 61.1 °F /  16.2 °C 53.2 °F /  11.8 °C 30.07in /  1018.2hPa Calm     75% 0.00in /  0mm 0 W/m2
02:54 60.9 °F /  16.1 °C 52.9 °F /  11.6 °C 30.07in /  1018.2hPa Calm     75% 0.00in /  0mm 0 W/m2
02:59 60.7 °F /  15.9 °C 52.7 °F /  11.5 °C 30.07in /  1018.2hPa Calm     75% 0.00in /  0mm 0 W/m2
03:04 60.5 °F /  15.8 °C 52.7 °F /  11.5 °C 30.07in /  1018.2hPa Calm     75.5% 0.00in /  0mm 0 W/m2
03:09 60.4 °F /  15.8 °C 52.8 °F /  11.6 °C 30.07in /  1018.2hPa Calm     76% 0.00in /  0mm 0 W/m2
03:14 60.2 °F /  15.7 °C 52.6 °F /  11.4 °C 30.07in /  1018.2hPa Calm     75.9% 0.00in /  0mm 0 W/m2
03:19 60 °F /  15.6 °C 52.4 °F /  11.3 °C 30.06in /  1017.8hPa Calm     75.9% 0.00in /  0mm 0 W/m2
03:24 59.9 °F /  15.5 °C 52.3 °F /  11.3 °C 30.07in /  1018.2hPa Calm     76% 0.00in /  0mm 0 W/m2
03:29 59.8 °F /  15.4 °C 52.2 °F /  11.2 °C 30.07in /  1018.2hPa Calm     76% 0.00in /  0mm 0 W/m2
03:34 59.6 °F /  15.3 °C 52.3 °F /  11.3 °C 30.07in /  1018.2hPa Calm     76.5% 0.00in /  0mm 0 W/m2
03:39 59.5 °F /  15.3 °C 52.3 °F /  11.3 °C 30.07in /  1018.2hPa Calm     77% 0.00in /  0mm 0 W/m2
03:44 59.3 °F /  15.2 °C 52.1 °F /  11.2 °C 30.07in /  1018.2hPa Calm     77% 0.00in /  0mm 0 W/m2
03:49 59.2 °F /  15.1 °C 52.2 °F /  11.2 °C 30.07in /  1018.2hPa Calm     77.6% 0.00in /  0mm 0 W/m2
03:54 58.9 °F /  14.9 °C 52.1 °F /  11.2 °C 30.07in /  1018.2hPa Calm     78.1% 0.00in /  0mm 0 W/m2
03:59 58.7 °F /  14.8 °C 52.2 °F /  11.2 °C 30.08in /  1018.5hPa Calm     79% 0.00in /  0mm 0 W/m2
04:00 58.6 °F /  14.8 °C 52.1 °F /  11.2 °C 30.08in /  1018.5hPa Calm     79% 0.00in /  0mm 0 W/m2
04:09 58.3 °F /  14.6 °C 52.1 °F /  11.2 °C 30.08in /  1018.5hPa Calm     79.7% 0.00in /  0mm 0 W/m2
04:14 58.1 °F /  14.5 °C 52 °F /  11.1 °C 30.08in /  1018.5hPa Calm     80% 0.00in /  0mm 0 W/m2
04:19 58 °F /  14.4 °C 51.8 °F /  11 °C 30.08in /  1018.5hPa Calm     80% 0.00in /  0mm 0 W/m2
04:24 57.8 °F /  14.3 °C 52 °F /  11.1 °C 30.08in /  1018.5hPa Calm     80.9% 0.00in /  0mm 0 W/m2
04:29 57.7 °F /  14.3 °C 51.9 °F /  11.1 °C 30.08in /  1018.5hPa Calm     81% 0.00in /  0mm 0 W/m2
04:34 57.6 °F /  14.2 °C 51.9 °F /  11.1 °C 30.09in /  1018.8hPa Calm     81% 0.00in /  0mm 0 W/m2
04:39 57.6 °F /  14.2 °C 51.8 °F /  11 °C 30.08in /  1018.5hPa Calm     81% 0.00in /  0mm 0 W/m2
04:44 57.5 °F /  14.2 °C 51.8 °F /  11 °C 30.09in /  1018.8hPa Calm     81% 0.00in /  0mm 0 W/m2
04:49 57.5 °F /  14.2 °C 51.7 °F /  10.9 °C 30.09in /  1018.8hPa Calm     81% 0.00in /  0mm 0 W/m2
04:54 57.4 °F /  14.1 °C 51.6 °F /  10.9 °C 30.09in /  1018.8hPa Calm     81% 0.00in /  0mm 0 W/m2
04:59 57.3 °F /  14.1 °C 51.6 °F /  10.9 °C 30.09in /  1018.8hPa Calm     81% 0.00in /  0mm 0 W/m2
05:04 57.3 °F /  14.1 °C 51.5 °F /  10.8 °C 30.09in /  1018.8hPa Calm     81% 0.00in /  0mm 0 W/m2
05:09 57.2 °F /  14 °C 51.4 °F /  10.8 °C 30.09in /  1018.8hPa Calm     81% 0.00in /  0mm 0 W/m2
05:14 57.1 °F /  13.9 °C 51.5 °F /  10.8 °C 30.09in /  1018.8hPa Calm     81.5% 0.00in /  0mm 5 W/m2
05:19 57 °F /  13.9 °C 51.5 °F /  10.8 °C 30.09in /  1018.8hPa Calm     82% 0.00in /  0mm 5 W/m2
05:24 56.9 °F /  13.8 °C 51.5 °F /  10.8 °C 30.09in /  1018.8hPa Calm     82% 0.00in /  0mm 9 W/m2
05:29 56.8 °F /  13.8 °C 51.5 °F /  10.8 °C 30.09in /  1018.8hPa Calm     82.4% 0.00in /  0mm 12 W/m2
05:34 56.8 °F /  13.8 °C 51.7 °F /  10.9 °C 30.09in /  1018.8hPa Calm     83% 0.00in /  0mm 12 W/m2
05:39 56.7 °F /  13.7 °C 51.6 °F /  10.9 °C 30.09in /  1018.8hPa Calm     83% 0.00in /  0mm 16 W/m2
05:44 56.6 °F /  13.7 °C 51.6 °F /  10.9 °C 30.09in /  1018.8hPa Calm     83.3% 0.00in /  0mm 21 W/m2
05:49 56.4 °F /  13.6 °C 51.7 °F /  10.9 °C 30.10in /  1019.2hPa Calm     84% 0.00in /  0mm 28 W/m2
05:54 56.4 °F /  13.6 °C 51.6 °F /  10.9 °C 30.10in /  1019.2hPa Calm     84% 0.00in /  0mm 40 W/m2
05:59 56.4 °F /  13.6 °C 51.9 °F /  11.1 °C 30.10in /  1019.2hPa Calm     84.8% 0.00in /  0mm 53 W/m2
06:04 56.4 °F /  13.6 °C 52 °F /  11.1 °C 30.11in /  1019.5hPa Calm     85% 0.00in /  0mm 62 W/m2
06:09 56.4 °F /  13.6 °C 52.1 °F /  11.2 °C 30.11in /  1019.5hPa Calm     85.3% 0.00in /  0mm 62 W/m2
06:14 56.6 °F /  13.7 °C 52.4 °F /  11.3 °C 30.12in /  1019.9hPa Calm     86% 0.00in /  0mm 56 W/m2
06:19 56.7 °F /  13.7 °C 52.6 °F /  11.4 °C 30.12in /  1019.9hPa Calm     86% 0.00in /  0mm 63 W/m2
06:24 56.9 °F /  13.8 °C 52.7 °F /  11.5 °C 30.12in /  1019.9hPa Calm     86% 0.00in /  0mm 62 W/m2
06:29 57 °F /  13.9 °C 52.8 °F /  11.6 °C 30.12in /  1019.9hPa Calm     85.6% 0.00in /  0mm 53 W/m2
06:34 57.3 °F /  14.1 °C 52.8 °F /  11.6 °C 30.12in /  1019.9hPa Calm     85% 0.00in /  0mm 51 W/m2
06:39 57.4 °F /  14.1 °C 52.7 °F /  11.5 °C 30.12in /  1019.9hPa Calm   1mph /  1.6km/h 84.2% 0.00in /  0mm 49 W/m2
06:44 57.6 °F /  14.2 °C 52.5 °F /  11.4 °C 30.12in /  1019.9hPa Calm   1mph /  1.6km/h 83% 0.00in /  0mm 53 W/m2
06:49 57.9 °F /  14.4 °C 52.5 °F /  11.4 °C 30.12in /  1019.9hPa Calm   1mph /  1.6km/h 82.3% 0.00in /  0mm 54 W/m2
06:54 58.1 °F /  14.5 °C 52.6 °F /  11.4 °C 30.12in /  1019.9hPa Calm   1mph /  1.6km/h 82% 0.00in /  0mm 65 W/m2
06:59 58.3 °F /  14.6 °C 52.6 °F /  11.4 °C 30.12in /  1019.9hPa Calm   1mph /  1.6km/h 81.5% 0.00in /  0mm 81 W/m2
07:04 58.5 °F /  14.7 °C 52.7 °F /  11.5 °C 30.13in /  1020.2hPa Calm   1mph /  1.6km/h 81% 0.00in /  0mm 105 W/m2
07:09 58.7 °F /  14.8 °C 52.8 °F /  11.6 °C 30.13in /  1020.2hPa Calm     80.7% 0.00in /  0mm 130 W/m2
07:14 59 °F /  15 °C 52.7 °F /  11.5 °C 30.13in /  1020.2hPa Calm     79.6% 0.00in /  0mm 139 W/m2
07:19 59.2 °F /  15.1 °C 52.6 °F /  11.4 °C 30.13in /  1020.2hPa Calm     78.8% 0.00in /  0mm 153 W/m2
07:24 59.5 °F /  15.3 °C 52.5 °F /  11.4 °C 30.13in /  1020.2hPa Calm     77.5% 0.00in /  0mm 155 W/m2
07:29 59.8 °F /  15.4 °C 52.6 °F /  11.4 °C 30.13in /  1020.2hPa Calm     77% 0.00in /  0mm 156 W/m2
07:34 60.1 °F /  15.6 °C 52.5 °F /  11.4 °C 30.13in /  1020.2hPa ENE 0.2mph /  0.3km/h 3mph /  4.8km/h 76% 0.00in /  0mm 178 W/m2
07:39 60.4 °F /  15.8 °C 52.8 °F /  11.6 °C 30.14in /  1020.5hPa ENE 0.5mph /  0.8km/h 4mph /  6.4km/h 76% 0.00in /  0mm 165 W/m2
07:44 60.6 °F /  15.9 °C 52.7 °F /  11.5 °C 30.14in /  1020.5hPa ENE 0.9mph /  1.4km/h 4mph /  6.4km/h 75.2% 0.00in /  0mm 169 W/m2
07:49 60.9 °F /  16.1 °C 52.9 °F /  11.6 °C 30.14in /  1020.5hPa Calm   4mph /  6.4km/h 75% 0.00in /  0mm 179 W/m2
07:54 61 °F /  16.1 °C 53.1 °F /  11.7 °C 30.13in /  1020.2hPa Calm   4mph /  6.4km/h 75% 0.00in /  0mm 209 W/m2
07:59 61.3 °F /  16.3 °C 53.1 °F /  11.7 °C 30.13in /  1020.2hPa Calm   4mph /  6.4km/h 74.6% 0.00in /  0mm 253 W/m2
08:00 61.4 °F /  16.3 °C 53.1 °F /  11.7 °C 30.13in /  1020.2hPa Calm   4mph /  6.4km/h 74% 0.00in /  0mm 200 W/m2
08:09 62.1 °F /  16.7 °C 54.4 °F /  12.4 °C 30.13in /  1020.2hPa Calm     75.8% 0.00in /  0mm 316 W/m2
08:14 62.6 °F /  17 °C 54.1 °F /  12.3 °C 30.13in /  1020.2hPa ENE 0.1mph /  0.2km/h 2mph /  3.2km/h 73.7% 0.00in /  0mm 241 W/m2
08:19 62.9 °F /  17.2 °C 54.1 °F /  12.3 °C 30.13in /  1020.2hPa Calm   2mph /  3.2km/h 73% 0.00in /  0mm 174 W/m2
08:24 63.1 °F /  17.3 °C 54.2 °F /  12.3 °C 30.13in /  1020.2hPa ENE 0.1mph /  0.2km/h 2mph /  3.2km/h 72.8% 0.00in /  0mm 206 W/m2
08:29 63.2 °F /  17.3 °C 54 °F /  12.2 °C 30.13in /  1020.2hPa NE 0.2mph /  0.3km/h 2mph /  3.2km/h 72% 0.00in /  0mm 308 W/m2
08:34 63.4 °F /  17.4 °C 54.4 °F /  12.4 °C 30.13in /  1020.2hPa Calm   2mph /  3.2km/h 72.5% 0.00in /  0mm 308 W/m2
08:39 63.8 °F /  17.7 °C 54.7 °F /  12.6 °C 30.13in /  1020.2hPa NE 0.3mph /  0.5km/h 2mph /  3.2km/h 72.1% 0.00in /  0mm 339 W/m2
08:44 64.2 °F /  17.9 °C 54.7 °F /  12.6 °C 30.13in /  1020.2hPa NNE 0.8mph /  1.3km/h 5mph /  8km/h 71.2% 0.00in /  0mm 367 W/m2
08:49 64.5 °F /  18.1 °C 54.5 °F /  12.5 °C 30.13in /  1020.2hPa NNW 0.6mph /  1km/h 5mph /  8km/h 70.1% 0.00in /  0mm 392 W/m2
08:54 64.8 °F /  18.2 °C 54.9 °F /  12.7 °C 30.13in /  1020.2hPa NNW 0.2mph /  0.3km/h 5mph /  8km/h 70.4% 0.00in /  0mm 434 W/m2
08:59 65.2 °F /  18.4 °C 55.4 °F /  13 °C 30.12in /  1019.9hPa Calm   5mph /  8km/h 70.5% 0.00in /  0mm 371 W/m2
09:04 65.7 °F /  18.7 °C 55.8 °F /  13.2 °C 30.12in /  1019.9hPa Calm   5mph /  8km/h 70.4% 0.00in /  0mm 462 W/m2
09:09 66.1 °F /  18.9 °C 55.6 °F /  13.1 °C 30.12in /  1019.9hPa Calm     68.9% 0.00in /  0mm 536 W/m2
09:14 66.5 °F /  19.2 °C 55.7 °F /  13.2 °C 30.12in /  1019.9hPa Calm     68.1% 0.00in /  0mm 536 W/m2
09:19 67 °F /  19.4 °C 55.9 °F /  13.3 °C 30.12in /  1019.9hPa NNW 0.1mph /  0.2km/h 1mph /  1.6km/h 67.7% 0.00in /  0mm 629 W/m2
09:24 67.7 °F /  19.8 °C 57 °F /  13.9 °C 30.12in /  1019.9hPa NNW 0.2mph /  0.3km/h 2mph /  3.2km/h 68.5% 0.00in /  0mm 629 W/m2
09:29 68.5 °F /  20.3 °C 56.6 °F /  13.7 °C 30.12in /  1019.9hPa NNW 0.1mph /  0.2km/h 2mph /  3.2km/h 65.8% 0.00in /  0mm 726 W/m2
09:34 69 °F /  20.6 °C 56.5 °F /  13.6 °C 30.12in /  1019.9hPa NNW 0.1mph /  0.2km/h 2mph /  3.2km/h 64.6% 0.00in /  0mm 726 W/m2
09:39 69.4 °F /  20.8 °C 56.2 °F /  13.4 °C 30.12in /  1019.9hPa Calm   2mph /  3.2km/h 62.8% 0.00in /  0mm 336 W/m2
09:44 69.6 °F /  20.9 °C 56.4 °F /  13.6 °C 30.12in /  1019.9hPa Calm   2mph /  3.2km/h 62.8% 0.00in /  0mm 281 W/m2
09:49 69.6 °F /  20.9 °C 55.9 °F /  13.3 °C 30.12in /  1019.9hPa Calm   2mph /  3.2km/h 61.9% 0.00in /  0mm 278 W/m2
09:54 69.4 °F /  20.8 °C 55.7 °F /  13.2 °C 30.12in /  1019.9hPa NNW 0.1mph /  0.2km/h 2mph /  3.2km/h 61.7% 0.00in /  0mm 257 W/m2
09:59 69.3 °F /  20.7 °C 55.6 °F /  13.1 °C 30.12in /  1019.9hPa Calm   2mph /  3.2km/h 61.6% 0.00in /  0mm 220 W/m2
10:04 69.2 °F /  20.7 °C 56 °F /  13.3 °C 30.12in /  1019.9hPa Calm   2mph /  3.2km/h 62.8% 0.00in /  0mm 174 W/m2
10:09 69.1 °F /  20.6 °C 55.8 °F /  13.2 °C 30.12in /  1019.9hPa Calm     62.6% 0.00in /  0mm 178 W/m2
10:14 69 °F /  20.6 °C 55.9 °F /  13.3 °C 30.11in /  1019.5hPa Calm     63% 0.00in /  0mm 186 W/m2
10:19 68.9 °F /  20.5 °C 56 °F /  13.3 °C 30.11in /  1019.5hPa Calm     63.3% 0.00in /  0mm 192 W/m2
10:24 68.9 °F /  20.5 °C 56.2 °F /  13.4 °C 30.11in /  1019.5hPa Calm     64% 0.00in /  0mm 192 W/m2
10:29 69 °F /  20.6 °C 56.8 °F /  13.8 °C 30.11in /  1019.5hPa Calm     65% 0.00in /  0mm 221 W/m2
10:34 68.9 °F /  20.5 °C 56.4 °F /  13.6 °C 30.11in /  1019.5hPa Calm   1mph /  1.6km/h 64.4% 0.00in /  0mm 243 W/m2
10:39 68.8 °F /  20.4 °C 56.2 °F /  13.4 °C 30.11in /  1019.5hPa NNW 0.1mph /  0.2km/h 1mph /  1.6km/h 64.1% 0.00in /  0mm 278 W/m2
10:44 68.8 °F /  20.4 °C 56.6 °F /  13.7 °C 30.11in /  1019.5hPa Calm   1mph /  1.6km/h 65.1% 0.00in /  0mm 309 W/m2
10:49 68.9 °F /  20.5 °C 57.1 °F /  13.9 °C 30.11in /  1019.5hPa Calm   1mph /  1.6km/h 66% 0.00in /  0mm 385 W/m2
10:54 69.1 °F /  20.6 °C 56.9 °F /  13.8 °C 30.11in /  1019.5hPa Calm   1mph /  1.6km/h 65.3% 0.00in /  0mm 550 W/m2
10:59 69.3 °F /  20.7 °C 57.5 °F /  14.2 °C 30.11in /  1019.5hPa Calm   1mph /  1.6km/h 66% 0.00in /  0mm 550 W/m2
11:04 69.7 °F /  20.9 °C 57.8 °F /  14.3 °C 30.11in /  1019.5hPa Calm   1mph /  1.6km/h 65.8% 0.00in /  0mm 540 W/m2
11:09 70.1 °F /  21.2 °C 57.5 °F /  14.2 °C 30.11in /  1019.5hPa Calm     64.3% 0.00in /  0mm 496 W/m2
11:14 70.6 °F /  21.4 °C 57.7 °F /  14.3 °C 30.10in /  1019.2hPa Calm     63.6% 0.00in /  0mm 468 W/m2
11:19 70.8 °F /  21.6 °C 57.1 °F /  13.9 °C 30.10in /  1019.2hPa Calm     61.7% 0.00in /  0mm 401 W/m2
11:24 70.9 °F /  21.6 °C 56.7 °F /  13.7 °C 30.11in /  1019.5hPa Calm     60.8% 0.00in /  0mm 434 W/m2
11:29 71.1 °F /  21.7 °C 57.7 °F /  14.3 °C 30.11in /  1019.5hPa Calm     62.6% 0.00in /  0mm 443 W/m2
11:34 71.5 °F /  21.9 °C 57.8 °F /  14.3 °C 30.11in /  1019.5hPa Calm     62% 0.00in /  0mm 399 W/m2
11:39 71.8 °F /  22.1 °C 57.7 °F /  14.3 °C 30.11in /  1019.5hPa Calm     61.1% 0.00in /  0mm 599 W/m2
11:44 72.1 °F /  22.3 °C 57.6 °F /  14.2 °C 30.11in /  1019.5hPa Calm     60.4% 0.00in /  0mm 599 W/m2
11:49 72.4 °F /  22.4 °C 58 °F /  14.4 °C 30.11in /  1019.5hPa Calm     60.5% 0.00in /  0mm 512 W/m2
11:54 72.7 °F /  22.6 °C 59.1 °F /  15.1 °C 30.12in /  1019.9hPa Calm     62.4% 0.00in /  0mm 454 W/m2
11:59 73 °F /  22.8 °C 58.9 °F /  14.9 °C 30.12in /  1019.9hPa NNW 0.5mph /  0.8km/h 3mph /  4.8km/h 61.4% 0.00in /  0mm 432 W/m2
12:00 73.1 °F /  22.8 °C 58.4 °F /  14.7 °C 30.12in /  1019.9hPa Calm   3mph /  4.8km/h 60% 0.00in /  0mm 323 W/m2
12:09 73.2 °F /  22.9 °C 58.8 °F /  14.9 °C 30.12in /  1019.9hPa Calm     60.7% 0.00in /  0mm 311 W/m2
12:14 73.3 °F /  22.9 °C 58.8 °F /  14.9 °C 30.12in /  1019.9hPa Calm     60.5% 0.00in /  0mm 304 W/m2
12:19 73.2 °F /  22.9 °C 58.7 °F /  14.8 °C 30.12in /  1019.9hPa NNW 0.3mph /  0.5km/h 3mph /  4.8km/h 60.3% 0.00in /  0mm 295 W/m2
12:24 73.2 °F /  22.9 °C 58.9 °F /  14.9 °C 30.13in /  1020.2hPa NNW 0.1mph /  0.2km/h 3mph /  4.8km/h 60.9% 0.00in /  0mm 323 W/m2
12:29 73.2 °F /  22.9 °C 59.4 °F /  15.2 °C 30.12in /  1019.9hPa NNW 0.4mph /  0.6km/h 3mph /  4.8km/h 62.1% 0.00in /  0mm 369 W/m2
12:34 73.3 °F /  22.9 °C 59.2 °F /  15.1 °C 30.12in /  1019.9hPa NNW 0.2mph /  0.3km/h 3mph /  4.8km/h 61.4% 0.00in /  0mm 364 W/m2
12:39 73.3 °F /  22.9 °C 59.3 °F /  15.2 °C 30.12in /  1019.9hPa NNW 0.3mph /  0.5km/h 3mph /  4.8km/h 61.5% 0.00in /  0mm 334 W/m2
12:44 73.3 °F /  22.9 °C 59.2 °F /  15.1 °C 30.12in /  1019.9hPa Calm   3mph /  4.8km/h 61.4% 0.00in /  0mm 295 W/m2
12:49 73.3 °F /  22.9 °C 58.9 °F /  14.9 °C 30.12in /  1019.9hPa Calm   3mph /  4.8km/h 60.7% 0.00in /  0mm 253 W/m2
12:54 73.1 °F /  22.8 °C 58.1 °F /  14.5 °C 30.12in /  1019.9hPa Calm   3mph /  4.8km/h 59.2% 0.00in /  0mm 250 W/m2
12:59 73.1 °F /  22.8 °C 59.5 °F /  15.3 °C 30.12in /  1019.9hPa NNW 0.1mph /  0.2km/h 3mph /  4.8km/h 62.5% 0.00in /  0mm 253 W/m2
13:04 73 °F /  22.8 °C 59.4 °F /  15.2 °C 30.12in /  1019.9hPa Calm   3mph /  4.8km/h 62.4% 0.00in /  0mm 278 W/m2
13:09 73 °F /  22.8 °C 59.6 °F /  15.3 °C 30.12in /  1019.9hPa NNW 0.3mph /  0.5km/h 3mph /  4.8km/h 62.7% 0.00in /  0mm 272 W/m2
13:14 73 °F /  22.8 °C 59.9 °F /  15.5 °C 30.12in /  1019.9hPa NNW 0.1mph /  0.2km/h 3mph /  4.8km/h 63.4% 0.00in /  0mm 269 W/m2
13:19 73 °F /  22.8 °C 60.1 °F /  15.6 °C 30.12in /  1019.9hPa Calm   3mph /  4.8km/h 64% 0.00in /  0mm 272 W/m2
13:24 72.9 °F /  22.7 °C 59.7 °F /  15.4 °C 30.12in /  1019.9hPa Calm   3mph /  4.8km/h 63.3% 0.00in /  0mm 257 W/m2
13:29 72.9 °F /  22.7 °C 60.7 °F /  15.9 °C 30.12in /  1019.9hPa Calm   3mph /  4.8km/h 65.6% 0.00in /  0mm 248 W/m2
13:34 72.9 °F /  22.7 °C 59.9 °F /  15.5 °C 30.12in /  1019.9hPa Calm   3mph /  4.8km/h 63.9% 0.00in /  0mm 301 W/m2
13:39 73 °F /  22.8 °C 60.3 °F /  15.7 °C 30.11in /  1019.5hPa Calm   1mph /  1.6km/h 64.5% 0.00in /  0mm 315 W/m2
13:44 73.1 °F /  22.8 °C 60.7 °F /  15.9 °C 30.11in /  1019.5hPa Calm   1mph /  1.6km/h 65.2% 0.00in /  0mm 316 W/m2
13:49 73.1 °F /  22.8 °C 60.4 °F /  15.8 °C 30.11in /  1019.5hPa Calm   1mph /  1.6km/h 64.3% 0.00in /  0mm 318 W/m2
13:54 73.2 °F /  22.9 °C 60.8 °F /  16 °C 30.10in /  1019.2hPa Calm   1mph /  1.6km/h 65.2% 0.00in /  0mm 336 W/m2
13:59 73.4 °F /  23 °C 60.3 °F /  15.7 °C 30.10in /  1019.2hPa Calm   1mph /  1.6km/h 63.6% 0.00in /  0mm 327 W/m2
14:04 73.3 °F /  22.9 °C 59.2 °F /  15.1 °C 30.10in /  1019.2hPa Calm   1mph /  1.6km/h 61.4% 0.00in /  0mm 381 W/m2
14:09 73.3 °F /  22.9 °C 59.8 °F /  15.4 °C 30.10in /  1019.2hPa Calm     62.6% 0.00in /  0mm 455 W/m2
14:14 73.6 °F /  23.1 °C 59.9 °F /  15.5 °C 30.10in /  1019.2hPa Calm     62.3% 0.00in /  0mm 457 W/m2
14:19 73.8 °F /  23.2 °C 60.2 °F /  15.7 °C 30.09in /  1018.8hPa Calm     62.5% 0.00in /  0mm 385 W/m2
14:24 74 °F /  23.3 °C 60 °F /  15.6 °C 30.09in /  1018.8hPa NNW 0.3mph /  0.5km/h 3mph /  4.8km/h 61.5% 0.00in /  0mm 304 W/m2
14:29 74 °F /  23.3 °C 59 °F /  15 °C 30.09in /  1018.8hPa Calm   3mph /  4.8km/h 59.5% 0.00in /  0mm 257 W/m2
14:34 74 °F /  23.3 °C 59.7 °F /  15.4 °C 30.09in /  1018.8hPa Calm   3mph /  4.8km/h 60.9% 0.00in /  0mm 237 W/m2
14:39 74.2 °F /  23.4 °C 60.5 °F /  15.8 °C 30.08in /  1018.5hPa Calm     62.4% 0.00in /  0mm 241 W/m2
14:44 74.2 °F /  23.4 °C 59.8 °F /  15.4 °C 30.08in /  1018.5hPa Calm     60.8% 0.00in /  0mm 230 W/m2
14:49 74.1 °F /  23.4 °C 59.7 °F /  15.4 °C 30.08in /  1018.5hPa Calm   1mph /  1.6km/h 60.7% 0.00in /  0mm 216 W/m2
14:54 74 °F /  23.3 °C 59.5 °F /  15.3 °C 30.08in /  1018.5hPa Calm   1mph /  1.6km/h 60.6% 0.00in /  0mm 199 W/m2
14:59 73.9 °F /  23.3 °C 59.9 °F /  15.5 °C 30.08in /  1018.5hPa NNW 0.1mph /  0.2km/h 2mph /  3.2km/h 61.7% 0.00in /  0mm 171 W/m2
15:04 73.9 °F /  23.3 °C 59.9 °F /  15.5 °C 30.08in /  1018.5hPa NNW 0.2mph /  0.3km/h 3mph /  4.8km/h 61.6% 0.00in /  0mm 142 W/m2
15:09 73.9 °F /  23.3 °C 60.3 °F /  15.7 °C 30.08in /  1018.5hPa Calm   3mph /  4.8km/h 62.5% 0.00in /  0mm 158 W/m2
15:14 73.9 °F /  23.3 °C 60 °F /  15.6 °C 30.08in /  1018.5hPa Calm   3mph /  4.8km/h 61.8% 0.00in /  0mm 169 W/m2
15:19 73.9 °F /  23.3 °C 59.8 °F /  15.4 °C 30.08in /  1018.5hPa Calm   3mph /  4.8km/h 61.4% 0.00in /  0mm 179 W/m2
15:24 73.9 °F /  23.3 °C 59.7 °F /  15.4 °C 30.08in /  1018.5hPa Calm   3mph /  4.8km/h 61.1% 0.00in /  0mm 151 W/m2
15:29 73.9 °F /  23.3 °C 58.7 °F /  14.8 °C 30.07in /  1018.2hPa Calm   3mph /  4.8km/h 59.1% 0.00in /  0mm 128 W/m2
15:34 73.8 °F /  23.2 °C 58.5 °F /  14.7 °C 30.08in /  1018.5hPa Calm   3mph /  4.8km/h 58.9% 0.00in /  0mm 114 W/m2
15:39 73.7 °F /  23.2 °C 57.9 °F /  14.4 °C 30.08in /  1018.5hPa Calm     57.6% 0.00in /  0mm 116 W/m2
15:44 73.7 °F /  23.2 °C 58.4 °F /  14.7 °C 30.08in /  1018.5hPa Calm     58.9% 0.00in /  0mm 121 W/m2
15:49 73.7 °F /  23.2 °C 59.1 °F /  15.1 °C 30.07in /  1018.2hPa Calm     60.2% 0.00in /  0mm 107 W/m2
15:54 73.6 °F /  23.1 °C 59 °F /  15 °C 30.08in /  1018.5hPa Calm     60.4% 0.00in /  0mm 102 W/m2
15:59 73.5 °F /  23.1 °C 59 °F /  15 °C 30.08in /  1018.5hPa Calm     60.4% 0.00in /  0mm 120 W/m2
16:00 73.5 °F /  23.1 °C 59.7 °F /  15.4 °C 30.07in /  1018.2hPa Calm     62% 0.00in /  0mm 120 W/m2
16:09 73.4 °F /  23 °C 58 °F /  14.4 °C 30.07in /  1018.2hPa Calm     58.6% 0.00in /  0mm 158 W/m2
16:14 73.5 °F /  23.1 °C 58.7 °F /  14.8 °C 30.07in /  1018.2hPa Calm     60% 0.00in /  0mm 181 W/m2
16:19 73.6 °F /  23.1 °C 60.1 °F /  15.6 °C 30.07in /  1018.2hPa Calm     62.6% 0.00in /  0mm 204 W/m2
16:24 73.8 °F /  23.2 °C 61.6 °F /  16.4 °C 30.07in /  1018.2hPa Calm     65.5% 0.00in /  0mm 200 W/m2
16:29 73.8 °F /  23.2 °C 61.3 °F /  16.3 °C 30.07in /  1018.2hPa Calm     65.1% 0.00in /  0mm 183 W/m2
16:34 73.7 °F /  23.2 °C 60.8 °F /  16 °C 30.07in /  1018.2hPa Calm     64% 0.00in /  0mm 151 W/m2
16:39 73.7 °F /  23.2 °C 61.3 °F /  16.3 °C 30.07in /  1018.2hPa Calm     65.1% 0.00in /  0mm 148 W/m2
16:44 73.8 °F /  23.2 °C 61.9 °F /  16.6 °C 30.07in /  1018.2hPa Calm     66.3% 0.00in /  0mm 118 W/m2
16:49 73.8 °F /  23.2 °C 62.1 °F /  16.7 °C 30.07in /  1018.2hPa Calm     66.8% 0.00in /  0mm 105 W/m2
16:54 73.7 °F /  23.2 °C 62.4 °F /  16.9 °C 30.07in /  1018.2hPa Calm     67.8% 0.00in /  0mm 76 W/m2
16:59 73.6 °F /  23.1 °C 61.6 °F /  16.4 °C 30.07in /  1018.2hPa Calm     66.3% 0.00in /  0mm 58 W/m2
17:04 73.5 °F /  23.1 °C 61.5 °F /  16.4 °C 30.07in /  1018.2hPa Calm     66.1% 0.00in /  0mm 53 W/m2
17:09 73.4 °F /  23 °C 61.5 °F /  16.4 °C 30.07in /  1018.2hPa Calm   1mph /  1.6km/h 66.3% 0.00in /  0mm 51 W/m2
17:14 73.3 °F /  22.9 °C 62 °F /  16.7 °C 30.07in /  1018.2hPa Calm   1mph /  1.6km/h 67.8% 0.00in /  0mm 42 W/m2
17:19 73.1 °F /  22.8 °C 61.8 °F /  16.6 °C 30.08in /  1018.5hPa Calm   1mph /  1.6km/h 67.6% 0.00in /  0mm 40 W/m2
17:24 72.9 °F /  22.7 °C 61.3 °F /  16.3 °C 30.08in /  1018.5hPa Calm   1mph /  1.6km/h 67.1% 0.00in /  0mm 47 W/m2
17:29 72.6 °F /  22.6 °C 61.3 °F /  16.3 °C 30.08in /  1018.5hPa Calm   1mph /  1.6km/h 67.5% 0.00in /  0mm 60 W/m2
17:34 72.4 °F /  22.4 °C 61.3 °F /  16.3 °C 30.08in /  1018.5hPa Calm   1mph /  1.6km/h 68% 0.00in /  0mm 65 W/m2
17:39 72.3 °F /  22.4 °C 61.1 °F /  16.2 °C 30.07in /  1018.2hPa Calm     68% 0.00in /  0mm 65 W/m2
17:44 72.1 °F /  22.3 °C 61.3 °F /  16.3 °C 30.07in /  1018.2hPa Calm     68.9% 0.00in /  0mm 62 W/m2
17:49 71.9 °F /  22.2 °C 60.9 °F /  16.1 °C 30.07in /  1018.2hPa Calm     68.3% 0.00in /  0mm 62 W/m2
17:54 71.9 °F /  22.2 °C 60.6 °F /  15.9 °C 30.07in /  1018.2hPa NNW 0.1mph /  0.2km/h 2mph /  3.2km/h 67.6% 0.00in /  0mm 53 W/m2
17:59 71.9 °F /  22.2 °C 60.6 °F /  15.9 °C 30.08in /  1018.5hPa Calm   2mph /  3.2km/h 67.7% 0.00in /  0mm 58 W/m2
18:04 71.9 °F /  22.2 °C 61.4 °F /  16.3 °C 30.07in /  1018.2hPa Calm   2mph /  3.2km/h 69.6% 0.00in /  0mm 58 W/m2
18:09 71.9 °F /  22.2 °C 61.4 °F /  16.3 °C 30.07in /  1018.2hPa Calm     69.4% 0.00in /  0mm 56 W/m2
18:14 71.9 °F /  22.2 °C 61.2 °F /  16.2 °C 30.07in /  1018.2hPa Calm     69.1% 0.00in /  0mm 47 W/m2
18:19 71.8 °F /  22.1 °C 60.9 °F /  16.1 °C 30.07in /  1018.2hPa Calm     68.5% 0.00in /  0mm 49 W/m2
18:24 71.7 °F /  22.1 °C 59.3 °F /  15.2 °C 30.07in /  1018.2hPa Calm     64.9% 0.00in /  0mm 44 W/m2
18:29 71.6 °F /  22 °C 58.7 °F /  14.8 °C 30.07in /  1018.2hPa Calm     63.8% 0.00in /  0mm 39 W/m2
18:34 71.7 °F /  22.1 °C 61.1 °F /  16.2 °C 30.07in /  1018.2hPa Calm     69.2% 0.00in /  0mm 32 W/m2
18:39 71.7 °F /  22.1 °C 61.6 °F /  16.4 °C 30.07in /  1018.2hPa Calm     70.4% 0.00in /  0mm 30 W/m2
18:44 71.7 °F /  22.1 °C 61.8 °F /  16.6 °C 30.07in /  1018.2hPa Calm     71% 0.00in /  0mm 30 W/m2
18:49 71.6 °F /  22 °C 62 °F /  16.7 °C 30.07in /  1018.2hPa Calm     71.7% 0.00in /  0mm 32 W/m2
18:54 71.5 °F /  21.9 °C 62 °F /  16.7 °C 30.07in /  1018.2hPa Calm     72% 0.00in /  0mm 49 W/m2
18:59 71.4 °F /  21.9 °C 61.8 °F /  16.6 °C 30.07in /  1018.2hPa Calm     71.8% 0.00in /  0mm 53 W/m2
19:04 71.2 °F /  21.8 °C 61.8 °F /  16.6 °C 30.07in /  1018.2hPa Calm     72% 0.00in /  0mm 49 W/m2
19:09 71.1 °F /  21.7 °C 61.7 °F /  16.5 °C 30.07in /  1018.2hPa Calm     72.1% 0.00in /  0mm 32 W/m2
19:14 71.1 °F /  21.7 °C 62 °F /  16.7 °C 30.07in /  1018.2hPa Calm     73% 0.00in /  0mm 25 W/m2
19:19 71.1 °F /  21.7 °C 62 °F /  16.7 °C 30.07in /  1018.2hPa Calm     73% 0.00in /  0mm 26 W/m2
19:24 71 °F /  21.7 °C 62 °F /  16.7 °C 30.07in /  1018.2hPa Calm     73.1% 0.00in /  0mm 26 W/m2
19:29 70.9 °F /  21.6 °C 62.2 °F /  16.8 °C 30.07in /  1018.2hPa Calm     73.9% 0.00in /  0mm 19 W/m2
19:34 70.8 °F /  21.6 °C 61.8 °F /  16.6 °C 30.07in /  1018.2hPa Calm     73% 0.00in /  0mm 16 W/m2
20:09 70.1 °F /  21.2 °C 61.1 °F /  16.2 °C 30.07in /  1018.2hPa Calm     73% 0.00in /  0mm 0 W/m2
20:14 70 °F /  21.1 °C 60.5 °F /  15.8 °C 30.07in /  1018.2hPa Calm     71.8% 0.00in /  0mm 0 W/m2
20:19 69.8 °F /  21 °C 60 °F /  15.6 °C 30.07in /  1018.2hPa Calm     71% 0.00in /  0mm 0 W/m2
20:24 69.8 °F /  21 °C 60.2 °F /  15.7 °C 30.07in /  1018.2hPa Calm     71.5% 0.00in /  0mm 0 W/m2
20:29 69.7 °F /  20.9 °C 60.3 °F /  15.7 °C 30.07in /  1018.2hPa Calm     72% 0.00in /  0mm 0 W/m2
20:34 69.7 °F /  20.9 °C 60.3 °F /  15.7 °C 30.07in /  1018.2hPa Calm     72% 0.00in /  0mm 0 W/m2
20:39 69.5 °F /  20.8 °C 60.1 °F /  15.6 °C 30.07in /  1018.2hPa Calm     72% 0.00in /  0mm 0 W/m2
20:44 69.4 °F /  20.8 °C 60 °F /  15.6 °C 30.07in /  1018.2hPa Calm     71.9% 0.00in /  0mm 0 W/m2
20:49 69.3 °F /  20.7 °C 59.6 °F /  15.3 °C 30.07in /  1018.2hPa Calm     71.1% 0.00in /  0mm 0 W/m2
20:54 69.3 °F /  20.7 °C 59.9 °F /  15.5 °C 30.07in /  1018.2hPa Calm     72% 0.00in /  0mm 0 W/m2
20:59 69.2 °F /  20.7 °C 59.8 °F /  15.4 °C 30.07in /  1018.2hPa Calm     72% 0.00in /  0mm 0 W/m2
21:04 69.2 °F /  20.7 °C 59.8 °F /  15.4 °C 30.07in /  1018.2hPa Calm     72% 0.00in /  0mm 0 W/m2
21:09 69.2 °F /  20.7 °C 59.8 °F /  15.4 °C 30.07in /  1018.2hPa Calm     72% 0.00in /  0mm 0 W/m2
21:14 69.1 °F /  20.6 °C 59.7 °F /  15.4 °C 30.07in /  1018.2hPa Calm     72% 0.00in /  0mm 0 W/m2
21:19 69 °F /  20.6 °C 59.6 °F /  15.3 °C 30.07in /  1018.2hPa Calm     72% 0.00in /  0mm 0 W/m2
21:24 68.9 °F /  20.5 °C 59.5 °F /  15.3 °C 30.08in /  1018.5hPa Calm     71.9% 0.00in /  0mm 0 W/m2
21:29 68.8 °F /  20.4 °C 59.3 °F /  15.2 °C 30.08in /  1018.5hPa Calm     71.6% 0.00in /  0mm 0 W/m2
21:30 68.8 °F /  20.4 °C 59.4 °F /  15.2 °C 30.08in /  1018.5hPa Calm     72% 0.00in /  0mm 0 W/m2
22:00 68.4 °F /  20.2 °C 59 °F /  15 °C 30.08in /  1018.5hPa Calm     72% 0.00in /  0mm 0 W/m2
22:30 67.8 °F /  19.9 °C 60 °F /  15.6 °C 30.09in /  1018.8hPa Calm     76% 0.00in /  0mm 0 W/m2
23:00 66.7 °F /  19.3 °C 59.6 °F /  15.3 °C 30.08in /  1018.5hPa Calm     78% 0.00in /  0mm 0 W/m2
23:30 65.9 °F /  18.8 °C 59.9 °F /  15.5 °C 30.08in /  1018.5hPa Calm     81% 0.00in /  0mm 0 W/m2
Hartford County Weather
Compliments of Weather Underground - 2 mb